sensor_id;sensor_type;location;lat;lon;timestamp;P1;durP1;ratioP1;P2;durP2;ratioP2
9807;SDS011;4943;52.550;13.462;2023-04-01T00:00:00;243.17;;;132.37;;
9807;SDS011;4943;52.550;13.462;2023-04-01T00:02:28;246.80;;;134.03;;
9807;SDS011;4943;52.550;13.462;2023-04-01T00:04:58;239.93;;;130.90;;
9807;SDS011;4943;52.550;13.462;2023-04-01T00:07:26;238.33;;;130.20;;
9807;SDS011;4943;52.550;13.462;2023-04-01T00:09:56;247.53;;;132.57;;
9807;SDS011;4943;52.550;13.462;2023-04-01T00:12:24;242.90;;;133.13;;
9807;SDS011;4943;52.550;13.462;2023-04-01T00:14:52;250.57;;;129.63;;
9807;SDS011;4943;52.550;13.462;2023-04-01T00:17:21;251.43;;;129.23;;
9807;SDS011;4943;52.550;13.462;2023-04-01T00:19:49;255.83;;;131.43;;
9807;SDS011;4943;52.550;13.462;2023-04-01T00:22:18;257.67;;;133.30;;
9807;SDS011;4943;52.550;13.462;2023-04-01T00:24:46;254.37;;;132.23;;
9807;SDS011;4943;52.550;13.462;2023-04-01T00:27:14;250.23;;;133.20;;
9807;SDS011;4943;52.550;13.462;2023-04-01T00:29:43;251.40;;;131.23;;
9807;SDS011;4943;52.550;13.462;2023-04-01T00:32:11;258.90;;;133.73;;
9807;SDS011;4943;52.550;13.462;2023-04-01T00:34:40;250.13;;;130.40;;
9807;SDS011;4943;52.550;13.462;2023-04-01T00:37:10;258.70;;;136.17;;
9807;SDS011;4943;52.550;13.462;2023-04-01T00:39:39;246.20;;;132.23;;
9807;SDS011;4943;52.550;13.462;2023-04-01T00:42:08;234.17;;;130.63;;
9807;SDS011;4943;52.550;13.462;2023-04-01T00:44:38;236.23;;;128.03;;
9807;SDS011;4943;52.550;13.462;2023-04-01T00:47:06;236.00;;;131.30;;
9807;SDS011;4943;52.550;13.462;2023-04-01T00:49:35;236.60;;;127.03;;
9807;SDS011;4943;52.550;13.462;2023-04-01T00:52:05;231.17;;;129.13;;
9807;SDS011;4943;52.550;13.462;2023-04-01T00:54:35;236.50;;;131.63;;
9807;SDS011;4943;52.550;13.462;2023-04-01T00:57:07;240.30;;;132.17;;
9807;SDS011;4943;52.550;13.462;2023-04-01T00:59:40;237.30;;;128.73;;
9807;SDS011;4943;52.550;13.462;2023-04-01T01:02:11;243.57;;;148.27;;
9807;SDS011;4943;52.550;13.462;2023-04-01T01:04:40;237.03;;;131.13;;
9807;SDS011;4943;52.550;13.462;2023-04-01T01:07:12;249.00;;;130.67;;
9807;SDS011;4943;52.550;13.462;2023-04-01T01:09:49;248.83;;;128.70;;
9807;SDS011;4943;52.550;13.462;2023-04-01T01:12:31;237.60;;;126.07;;
9807;SDS011;4943;52.550;13.462;2023-04-01T01:15:06;234.13;;;128.67;;
9807;SDS011;4943;52.550;13.462;2023-04-01T01:17:44;241.13;;;126.50;;
9807;SDS011;4943;52.550;13.462;2023-04-01T01:20:24;239.30;;;129.93;;
9807;SDS011;4943;52.550;13.462;2023-04-01T01:23:33;249.23;;;127.97;;
9807;SDS011;4943;52.550;13.462;2023-04-01T01:26:46;243.13;;;123.83;;
9807;SDS011;4943;52.550;13.462;2023-04-01T01:29:27;244.27;;;132.63;;
9807;SDS011;4943;52.550;13.462;2023-04-01T01:32:17;243.57;;;131.17;;
9807;SDS011;4943;52.550;13.462;2023-04-01T01:34:55;241.83;;;126.73;;
9807;SDS011;4943;52.550;13.462;2023-04-01T01:37:35;235.67;;;122.83;;
9807;SDS011;4943;52.550;13.462;2023-04-01T01:40:06;231.97;;;127.83;;
9807;SDS011;4943;52.550;13.462;2023-04-01T01:42:36;242.20;;;128.20;;
9807;SDS011;4943;52.550;13.462;2023-04-01T01:45:06;235.30;;;128.03;;
9807;SDS011;4943;52.550;13.462;2023-04-01T01:47:37;246.03;;;126.63;;
9807;SDS011;4943;52.550;13.462;2023-04-01T01:50:08;245.97;;;128.20;;
9807;SDS011;4943;52.550;13.462;2023-04-01T01:52:37;239.47;;;128.43;;
9807;SDS011;4943;52.550;13.462;2023-04-01T01:57:54;244.33;;;126.27;;
9807;SDS011;4943;52.550;13.462;2023-04-01T02:00:23;244.63;;;130.90;;
9807;SDS011;4943;52.550;13.462;2023-04-01T02:02:51;238.63;;;125.47;;
9807;SDS011;4943;52.550;13.462;2023-04-01T02:05:22;243.13;;;131.53;;
9807;SDS011;4943;52.550;13.462;2023-04-01T02:07:54;238.37;;;129.33;;
9807;SDS011;4943;52.550;13.462;2023-04-01T02:10:28;234.83;;;127.43;;
9807;SDS011;4943;52.550;13.462;2023-04-01T02:13:03;235.73;;;128.57;;
9807;SDS011;4943;52.550;13.462;2023-04-01T02:15:40;236.47;;;127.30;;
9807;SDS011;4943;52.550;13.462;2023-04-01T02:18:10;249.60;;;134.93;;
9807;SDS011;4943;52.550;13.462;2023-04-01T02:20:42;243.37;;;124.80;;
9807;SDS011;4943;52.550;13.462;2023-04-01T02:23:11;241.40;;;129.00;;
9807;SDS011;4943;52.550;13.462;2023-04-01T02:25:42;240.80;;;126.07;;
9807;SDS011;4943;52.550;13.462;2023-04-01T02:28:12;241.17;;;128.77;;
9807;SDS011;4943;52.550;13.462;2023-04-01T02:30:42;241.70;;;124.00;;
9807;SDS011;4943;52.550;13.462;2023-04-01T02:33:11;241.47;;;130.40;;
9807;SDS011;4943;52.550;13.462;2023-04-01T02:35:40;238.47;;;127.43;;
9807;SDS011;4943;52.550;13.462;2023-04-01T02:38:09;238.87;;;128.37;;
9807;SDS011;4943;52.550;13.462;2023-04-01T02:40:43;238.90;;;125.87;;
9807;SDS011;4943;52.550;13.462;2023-04-01T02:43:13;236.50;;;127.17;;
9807;SDS011;4943;52.550;13.462;2023-04-01T02:45:42;238.40;;;123.80;;
9807;SDS011;4943;52.550;13.462;2023-04-01T02:48:10;238.50;;;122.43;;
9807;SDS011;4943;52.550;13.462;2023-04-01T02:50:39;235.20;;;125.60;;
9807;SDS011;4943;52.550;13.462;2023-04-01T02:53:08;246.27;;;125.37;;
9807;SDS011;4943;52.550;13.462;2023-04-01T02:55:36;244.80;;;125.07;;
9807;SDS011;4943;52.550;13.462;2023-04-01T02:58:04;240.30;;;125.67;;
9807;SDS011;4943;52.550;13.462;2023-04-01T03:00:32;247.57;;;127.30;;
9807;SDS011;4943;52.550;13.462;2023-04-01T03:03:00;244.77;;;126.47;;
9807;SDS011;4943;52.550;13.462;2023-04-01T03:05:29;242.23;;;125.97;;
9807;SDS011;4943;52.550;13.462;2023-04-01T03:07:57;246.27;;;125.40;;
9807;SDS011;4943;52.550;13.462;2023-04-01T03:10:27;235.67;;;125.23;;
9807;SDS011;4943;52.550;13.462;2023-04-01T03:12:55;235.03;;;125.30;;
9807;SDS011;4943;52.550;13.462;2023-04-01T03:15:23;239.60;;;126.70;;
9807;SDS011;4943;52.550;13.462;2023-04-01T03:17:51;243.23;;;124.67;;
9807;SDS011;4943;52.550;13.462;2023-04-01T03:20:19;244.40;;;127.30;;
9807;SDS011;4943;52.550;13.462;2023-04-01T03:22:47;241.87;;;125.90;;
9807;SDS011;4943;52.550;13.462;2023-04-01T03:25:15;250.63;;;127.73;;
9807;SDS011;4943;52.550;13.462;2023-04-01T03:27:44;243.03;;;126.97;;
9807;SDS011;4943;52.550;13.462;2023-04-01T03:30:12;240.47;;;128.30;;
9807;SDS011;4943;52.550;13.462;2023-04-01T03:32:40;237.73;;;124.97;;
9807;SDS011;4943;52.550;13.462;2023-04-01T03:35:09;244.10;;;127.80;;
9807;SDS011;4943;52.550;13.462;2023-04-01T03:37:37;233.33;;;127.63;;
9807;SDS011;4943;52.550;13.462;2023-04-01T03:40:05;234.53;;;129.10;;
9807;SDS011;4943;52.550;13.462;2023-04-01T03:42:34;231.70;;;128.23;;
9807;SDS011;4943;52.550;13.462;2023-04-01T03:45:04;235.50;;;126.00;;
9807;SDS011;4943;52.550;13.462;2023-04-01T03:47:33;234.17;;;126.53;;
9807;SDS011;4943;52.550;13.462;2023-04-01T03:50:01;237.23;;;124.70;;
9807;SDS011;4943;52.550;13.462;2023-04-01T03:52:29;239.23;;;129.60;;
9807;SDS011;4943;52.550;13.462;2023-04-01T03:54:57;241.63;;;127.07;;
9807;SDS011;4943;52.550;13.462;2023-04-01T03:57:25;242.77;;;128.33;;
9807;SDS011;4943;52.550;13.462;2023-04-01T03:59:53;241.33;;;124.70;;
9807;SDS011;4943;52.550;13.462;2023-04-01T04:02:22;240.37;;;129.20;;
9807;SDS011;4943;52.550;13.462;2023-04-01T04:04:51;240.13;;;126.43;;
9807;SDS011;4943;52.550;13.462;2023-04-01T04:07:19;239.60;;;126.97;;
9807;SDS011;4943;52.550;13.462;2023-04-01T04:09:47;239.50;;;127.07;;
9807;SDS011;4943;52.550;13.462;2023-04-01T04:12:15;235.70;;;127.57;;
9807;SDS011;4943;52.550;13.462;2023-04-01T04:14:43;238.33;;;126.93;;
9807;SDS011;4943;52.550;13.462;2023-04-01T04:17:11;242.77;;;126.47;;
9807;SDS011;4943;52.550;13.462;2023-04-01T04:19:44;229.00;;;123.53;;
9807;SDS011;4943;52.550;13.462;2023-04-01T04:22:12;231.20;;;126.37;;
9807;SDS011;4943;52.550;13.462;2023-04-01T04:24:40;228.70;;;124.73;;
9807;SDS011;4943;52.550;13.462;2023-04-01T04:27:10;230.83;;;127.10;;
9807;SDS011;4943;52.550;13.462;2023-04-01T04:29:39;226.73;;;124.93;;
9807;SDS011;4943;52.550;13.462;2023-04-01T04:32:07;231.30;;;125.50;;
9807;SDS011;4943;52.550;13.462;2023-04-01T04:34:35;232.73;;;126.10;;
9807;SDS011;4943;52.550;13.462;2023-04-01T04:37:04;216.67;;;125.50;;
9807;SDS011;4943;52.550;13.462;2023-04-01T04:39:32;228.60;;;129.03;;
9807;SDS011;4943;52.550;13.462;2023-04-01T04:42:00;231.67;;;127.53;;
9807;SDS011;4943;52.550;13.462;2023-04-01T04:44:28;225.47;;;128.57;;
9807;SDS011;4943;52.550;13.462;2023-04-01T04:46:56;238.33;;;132.37;;
9807;SDS011;4943;52.550;13.462;2023-04-01T04:49:24;228.77;;;129.27;;
9807;SDS011;4943;52.550;13.462;2023-04-01T04:51:52;230.63;;;128.20;;
9807;SDS011;4943;52.550;13.462;2023-04-01T04:54:21;236.30;;;128.43;;
9807;SDS011;4943;52.550;13.462;2023-04-01T04:56:50;225.70;;;127.17;;
9807;SDS011;4943;52.550;13.462;2023-04-01T04:59:19;224.73;;;131.10;;
9807;SDS011;4943;52.550;13.462;2023-04-01T05:01:47;224.30;;;129.93;;
9807;SDS011;4943;52.550;13.462;2023-04-01T05:04:15;226.63;;;128.90;;
9807;SDS011;4943;52.550;13.462;2023-04-01T05:06:43;222.70;;;126.03;;
9807;SDS011;4943;52.550;13.462;2023-04-01T05:09:11;221.70;;;125.20;;
9807;SDS011;4943;52.550;13.462;2023-04-01T05:11:41;220.43;;;125.90;;
9807;SDS011;4943;52.550;13.462;2023-04-01T05:14:11;229.40;;;126.50;;
9807;SDS011;4943;52.550;13.462;2023-04-01T05:16:40;223.13;;;125.63;;
9807;SDS011;4943;52.550;13.462;2023-04-01T05:19:08;232.50;;;127.13;;
9807;SDS011;4943;52.550;13.462;2023-04-01T05:21:36;234.47;;;129.30;;
9807;SDS011;4943;52.550;13.462;2023-04-01T05:24:07;225.60;;;129.83;;
9807;SDS011;4943;52.550;13.462;2023-04-01T05:26:36;228.73;;;127.23;;
9807;SDS011;4943;52.550;13.462;2023-04-01T05:29:05;229.00;;;128.67;;
9807;SDS011;4943;52.550;13.462;2023-04-01T05:31:33;227.77;;;130.17;;
9807;SDS011;4943;52.550;13.462;2023-04-01T05:34:01;226.90;;;125.33;;
9807;SDS011;4943;52.550;13.462;2023-04-01T05:36:30;229.50;;;127.83;;
9807;SDS011;4943;52.550;13.462;2023-04-01T05:38:58;236.37;;;128.43;;
9807;SDS011;4943;52.550;13.462;2023-04-01T05:41:26;217.63;;;131.97;;
9807;SDS011;4943;52.550;13.462;2023-04-01T05:43:54;230.80;;;132.63;;
9807;SDS011;4943;52.550;13.462;2023-04-01T05:46:23;227.33;;;133.23;;
9807;SDS011;4943;52.550;13.462;2023-04-01T05:48:52;209.47;;;127.40;;
9807;SDS011;4943;52.550;13.462;2023-04-01T05:51:20;215.23;;;128.40;;
9807;SDS011;4943;52.550;13.462;2023-04-01T05:53:48;220.20;;;127.87;;
9807;SDS011;4943;52.550;13.462;2023-04-01T05:56:16;219.40;;;130.10;;
9807;SDS011;4943;52.550;13.462;2023-04-01T05:58:44;208.80;;;127.97;;
9807;SDS011;4943;52.550;13.462;2023-04-01T06:01:17;205.47;;;129.33;;
9807;SDS011;4943;52.550;13.462;2023-04-01T06:03:46;210.73;;;130.40;;
9807;SDS011;4943;52.550;13.462;2023-04-01T06:06:15;212.90;;;130.23;;
9807;SDS011;4943;52.550;13.462;2023-04-01T06:08:47;220.97;;;129.63;;
9807;SDS011;4943;52.550;13.462;2023-04-01T06:11:19;218.63;;;131.23;;
9807;SDS011;4943;52.550;13.462;2023-04-01T06:14:07;218.23;;;128.40;;
9807;SDS011;4943;52.550;13.462;2023-04-01T06:16:49;218.17;;;124.77;;
9807;SDS011;4943;52.550;13.462;2023-04-01T06:19:29;218.20;;;129.63;;
9807;SDS011;4943;52.550;13.462;2023-04-01T06:25:15;230.13;;;126.93;;
9807;SDS011;4943;52.550;13.462;2023-04-01T06:28:02;218.43;;;129.67;;
9807;SDS011;4943;52.550;13.462;2023-04-01T06:30:51;224.80;;;129.40;;
9807;SDS011;4943;52.550;13.462;2023-04-01T06:33:31;228.73;;;130.23;;
9807;SDS011;4943;52.550;13.462;2023-04-01T06:36:17;228.00;;;128.87;;
9807;SDS011;4943;52.550;13.462;2023-04-01T06:39:04;225.20;;;127.23;;
9807;SDS011;4943;52.550;13.462;2023-04-01T06:44:40;245.37;;;132.53;;
9807;SDS011;4943;52.550;13.462;2023-04-01T06:47:23;238.83;;;127.83;;
9807;SDS011;4943;52.550;13.462;2023-04-01T06:50:03;246.60;;;131.27;;
9807;SDS011;4943;52.550;13.462;2023-04-01T06:52:42;249.60;;;131.23;;
9807;SDS011;4943;52.550;13.462;2023-04-01T06:55:21;250.50;;;131.57;;
9807;SDS011;4943;52.550;13.462;2023-04-01T06:57:55;241.30;;;129.20;;
9807;SDS011;4943;52.550;13.462;2023-04-01T07:00:27;242.33;;;134.97;;
9807;SDS011;4943;52.550;13.462;2023-04-01T07:03:01;250.57;;;133.03;;
9807;SDS011;4943;52.550;13.462;2023-04-01T07:05:34;262.27;;;137.57;;
9807;SDS011;4943;52.550;13.462;2023-04-01T07:08:05;268.10;;;134.73;;
9807;SDS011;4943;52.550;13.462;2023-04-01T07:10:41;266.00;;;137.83;;
9807;SDS011;4943;52.550;13.462;2023-04-01T07:13:13;264.53;;;133.27;;
9807;SDS011;4943;52.550;13.462;2023-04-01T07:15:49;265.83;;;139.83;;
9807;SDS011;4943;52.550;13.462;2023-04-01T07:18:25;261.73;;;135.63;;
9807;SDS011;4943;52.550;13.462;2023-04-01T07:21:03;264.83;;;134.80;;
9807;SDS011;4943;52.550;13.462;2023-04-01T07:23:38;264.63;;;137.80;;
9807;SDS011;4943;52.550;13.462;2023-04-01T07:26:14;260.63;;;135.43;;
9807;SDS011;4943;52.550;13.462;2023-04-01T07:28:44;264.47;;;134.90;;
9807;SDS011;4943;52.550;13.462;2023-04-01T07:31:15;262.27;;;136.77;;
9807;SDS011;4943;52.550;13.462;2023-04-01T07:33:52;265.77;;;138.17;;
9807;SDS011;4943;52.550;13.462;2023-04-01T07:36:28;259.60;;;137.03;;
9807;SDS011;4943;52.550;13.462;2023-04-01T07:39:06;260.90;;;136.93;;
9807;SDS011;4943;52.550;13.462;2023-04-01T07:41:48;259.23;;;135.43;;
9807;SDS011;4943;52.550;13.462;2023-04-01T07:44:24;261.10;;;140.93;;
9807;SDS011;4943;52.550;13.462;2023-04-01T07:47:05;258.33;;;138.70;;
9807;SDS011;4943;52.550;13.462;2023-04-01T07:49:43;263.90;;;139.43;;
9807;SDS011;4943;52.550;13.462;2023-04-01T07:52:21;260.23;;;139.80;;
9807;SDS011;4943;52.550;13.462;2023-04-01T07:54:55;268.00;;;139.07;;
9807;SDS011;4943;52.550;13.462;2023-04-01T07:57:27;267.10;;;139.13;;
9807;SDS011;4943;52.550;13.462;2023-04-01T08:00:04;268.17;;;139.20;;
9807;SDS011;4943;52.550;13.462;2023-04-01T08:02:42;276.53;;;142.00;;
9807;SDS011;4943;52.550;13.462;2023-04-01T08:05:22;272.83;;;138.30;;
9807;SDS011;4943;52.550;13.462;2023-04-01T08:07:56;265.23;;;136.60;;
9807;SDS011;4943;52.550;13.462;2023-04-01T08:10:35;269.80;;;139.77;;
9807;SDS011;4943;52.550;13.462;2023-04-01T08:13:10;263.33;;;136.53;;
9807;SDS011;4943;52.550;13.462;2023-04-01T08:15:47;272.03;;;138.13;;
9807;SDS011;4943;52.550;13.462;2023-04-01T08:18:23;277.10;;;141.27;;
9807;SDS011;4943;52.550;13.462;2023-04-01T08:20:59;276.97;;;139.13;;
9807;SDS011;4943;52.550;13.462;2023-04-01T08:23:30;281.60;;;140.40;;
9807;SDS011;4943;52.550;13.462;2023-04-01T08:26:02;273.07;;;138.13;;
9807;SDS011;4943;52.550;13.462;2023-04-01T08:28:34;272.60;;;137.30;;
9807;SDS011;4943;52.550;13.462;2023-04-01T08:31:07;275.80;;;137.90;;
9807;SDS011;4943;52.550;13.462;2023-04-01T08:33:39;270.70;;;137.67;;
9807;SDS011;4943;52.550;13.462;2023-04-01T08:36:10;264.30;;;135.47;;
9807;SDS011;4943;52.550;13.462;2023-04-01T08:38:42;260.07;;;134.37;;
9807;SDS011;4943;52.550;13.462;2023-04-01T08:41:20;259.40;;;133.17;;
9807;SDS011;4943;52.550;13.462;2023-04-01T08:44:12;256.03;;;129.20;;
9807;SDS011;4943;52.550;13.462;2023-04-01T08:47:03;272.10;;;133.33;;
9807;SDS011;4943;52.550;13.462;2023-04-01T08:52:52;270.30;;;130.03;;
9807;SDS011;4943;52.550;13.462;2023-04-01T08:55:30;274.20;;;133.27;;
9807;SDS011;4943;52.550;13.462;2023-04-01T08:58:11;263.07;;;130.67;;
9807;SDS011;4943;52.550;13.462;2023-04-01T09:01:07;265.13;;;130.70;;
9807;SDS011;4943;52.550;13.462;2023-04-01T09:03:44;266.73;;;132.33;;
9807;SDS011;4943;52.550;13.462;2023-04-01T09:06:33;265.17;;;134.83;;
9807;SDS011;4943;52.550;13.462;2023-04-01T09:09:19;268.10;;;134.53;;
9807;SDS011;4943;52.550;13.462;2023-04-01T09:12:01;268.57;;;129.47;;
9807;SDS011;4943;52.550;13.462;2023-04-01T09:14:49;269.00;;;137.50;;
9807;SDS011;4943;52.550;13.462;2023-04-01T09:17:45;266.13;;;136.13;;
9807;SDS011;4943;52.550;13.462;2023-04-01T09:20:27;263.53;;;135.83;;
9807;SDS011;4943;52.550;13.462;2023-04-01T09:23:17;258.83;;;133.43;;
9807;SDS011;4943;52.550;13.462;2023-04-01T09:26:18;264.80;;;137.47;;
9807;SDS011;4943;52.550;13.462;2023-04-01T09:28:55;264.33;;;134.40;;
9807;SDS011;4943;52.550;13.462;2023-04-01T09:31:39;262.90;;;133.97;;
9807;SDS011;4943;52.550;13.462;2023-04-01T09:34:26;260.77;;;135.40;;
9807;SDS011;4943;52.550;13.462;2023-04-01T09:37:16;265.57;;;136.77;;
9807;SDS011;4943;52.550;13.462;2023-04-01T09:42:47;271.33;;;141.47;;
9807;SDS011;4943;52.550;13.462;2023-04-01T09:45:33;263.73;;;133.87;;
9807;SDS011;4943;52.550;13.462;2023-04-01T09:48:17;263.40;;;137.90;;
9807;SDS011;4943;52.550;13.462;2023-04-01T09:50:52;266.00;;;134.93;;
9807;SDS011;4943;52.550;13.462;2023-04-01T09:53:33;267.93;;;135.37;;
9807;SDS011;4943;52.550;13.462;2023-04-01T09:59:15;264.00;;;135.30;;
9807;SDS011;4943;52.550;13.462;2023-04-01T10:05:10;265.03;;;130.50;;
9807;SDS011;4943;52.550;13.462;2023-04-01T10:14:12;269.60;;;128.90;;
9807;SDS011;4943;52.550;13.462;2023-04-01T10:19:59;264.47;;;130.37;;
9807;SDS011;4943;52.550;13.462;2023-04-01T10:22:41;268.50;;;132.77;;
9807;SDS011;4943;52.550;13.462;2023-04-01T10:25:34;260.13;;;128.57;;
9807;SDS011;4943;52.550;13.462;2023-04-01T10:28:29;264.77;;;132.83;;
9807;SDS011;4943;52.550;13.462;2023-04-01T10:31:22;255.10;;;128.17;;
9807;SDS011;4943;52.550;13.462;2023-04-01T10:34:27;251.53;;;127.83;;
9807;SDS011;4943;52.550;13.462;2023-04-01T10:37:15;252.07;;;128.37;;
9807;SDS011;4943;52.550;13.462;2023-04-01T10:43:13;259.93;;;128.77;;
9807;SDS011;4943;52.550;13.462;2023-04-01T10:55:12;235.20;;;124.87;;
9807;SDS011;4943;52.550;13.462;2023-04-01T10:58:11;243.43;;;124.83;;
9807;SDS011;4943;52.550;13.462;2023-04-01T11:01:22;237.63;;;125.47;;
9807;SDS011;4943;52.550;13.462;2023-04-01T11:04:29;246.83;;;127.43;;
9807;SDS011;4943;52.550;13.462;2023-04-01T11:07:41;253.13;;;126.30;;
9807;SDS011;4943;52.550;13.462;2023-04-01T11:13:52;254.10;;;128.67;;
9807;SDS011;4943;52.550;13.462;2023-04-01T11:16:45;256.03;;;130.60;;
9807;SDS011;4943;52.550;13.462;2023-04-01T11:19:34;253.67;;;125.27;;
9807;SDS011;4943;52.550;13.462;2023-04-01T11:22:21;255.60;;;132.20;;
9807;SDS011;4943;52.550;13.462;2023-04-01T11:25:14;255.87;;;131.63;;
9807;SDS011;4943;52.550;13.462;2023-04-01T11:27:55;256.27;;;135.07;;
9807;SDS011;4943;52.550;13.462;2023-04-01T11:30:56;254.53;;;135.80;;
9807;SDS011;4943;52.550;13.462;2023-04-01T11:33:38;254.10;;;132.70;;
9807;SDS011;4943;52.550;13.462;2023-04-01T11:36:12;251.83;;;133.30;;
9807;SDS011;4943;52.550;13.462;2023-04-01T11:39:03;254.17;;;133.33;;
9807;SDS011;4943;52.550;13.462;2023-04-01T11:41:41;243.47;;;133.00;;
9807;SDS011;4943;52.550;13.462;2023-04-01T11:44:16;245.07;;;131.80;;
9807;SDS011;4943;52.550;13.462;2023-04-01T11:46:51;252.40;;;136.13;;
9807;SDS011;4943;52.550;13.462;2023-04-01T11:49:33;245.47;;;134.50;;
9807;SDS011;4943;52.550;13.462;2023-04-01T11:52:21;248.70;;;131.30;;
9807;SDS011;4943;52.550;13.462;2023-04-01T11:55:23;245.53;;;128.67;;
9807;SDS011;4943;52.550;13.462;2023-04-01T11:58:12;250.80;;;128.77;;
9807;SDS011;4943;52.550;13.462;2023-04-01T12:01:14;249.43;;;127.43;;
9807;SDS011;4943;52.550;13.462;2023-04-01T12:07:23;251.23;;;126.57;;
9807;SDS011;4943;52.550;13.462;2023-04-01T12:10:02;247.63;;;128.10;;
9807;SDS011;4943;52.550;13.462;2023-04-01T12:12:43;258.60;;;128.43;;
9807;SDS011;4943;52.550;13.462;2023-04-01T12:15:29;259.63;;;125.63;;
9807;SDS011;4943;52.550;13.462;2023-04-01T12:18:05;254.73;;;128.27;;
9807;SDS011;4943;52.550;13.462;2023-04-01T12:20:45;259.67;;;127.20;;
9807;SDS011;4943;52.550;13.462;2023-04-01T12:23:26;258.23;;;125.20;;
9807;SDS011;4943;52.550;13.462;2023-04-01T12:26:18;256.93;;;126.83;;
9807;SDS011;4943;52.550;13.462;2023-04-01T12:29:14;260.13;;;124.47;;
9807;SDS011;4943;52.550;13.462;2023-04-01T12:31:57;255.70;;;126.87;;
9807;SDS011;4943;52.550;13.462;2023-04-01T12:34:41;251.60;;;121.17;;
9807;SDS011;4943;52.550;13.462;2023-04-01T12:37:28;254.30;;;120.73;;
9807;SDS011;4943;52.550;13.462;2023-04-01T12:40:17;254.20;;;121.10;;
9807;SDS011;4943;52.550;13.462;2023-04-01T12:46:13;251.60;;;121.10;;
9807;SDS011;4943;52.550;13.462;2023-04-01T12:52:03;259.27;;;123.43;;
9807;SDS011;4943;52.550;13.462;2023-04-01T12:57:41;264.37;;;119.63;;
9807;SDS011;4943;52.550;13.462;2023-04-01T13:00:34;259.77;;;117.83;;
9807;SDS011;4943;52.550;13.462;2023-04-01T13:03:17;263.63;;;120.87;;
9807;SDS011;4943;52.550;13.462;2023-04-01T13:09:11;262.40;;;122.30;;
9807;SDS011;4943;52.550;13.462;2023-04-01T13:11:55;260.33;;;120.73;;
9807;SDS011;4943;52.550;13.462;2023-04-01T13:14:52;263.80;;;117.87;;
9807;SDS011;4943;52.550;13.462;2023-04-01T13:17:33;269.80;;;118.23;;
9807;SDS011;4943;52.550;13.462;2023-04-01T13:20:06;269.37;;;119.73;;
9807;SDS011;4943;52.550;13.462;2023-04-01T13:22:47;268.83;;;123.83;;
9807;SDS011;4943;52.550;13.462;2023-04-01T13:25:26;269.27;;;122.43;;
9807;SDS011;4943;52.550;13.462;2023-04-01T13:28:05;268.43;;;118.17;;
9807;SDS011;4943;52.550;13.462;2023-04-01T13:30:44;261.60;;;119.40;;
9807;SDS011;4943;52.550;13.462;2023-04-01T13:33:23;266.43;;;118.67;;
9807;SDS011;4943;52.550;13.462;2023-04-01T13:36:03;273.23;;;120.67;;
9807;SDS011;4943;52.550;13.462;2023-04-01T13:41:47;275.60;;;116.17;;
9807;SDS011;4943;52.550;13.462;2023-04-01T13:44:32;276.10;;;115.40;;
9807;SDS011;4943;52.550;13.462;2023-04-01T13:50:25;290.10;;;118.43;;
9807;SDS011;4943;52.550;13.462;2023-04-01T13:53:05;287.53;;;114.70;;
9807;SDS011;4943;52.550;13.462;2023-04-01T13:55:49;289.87;;;117.67;;
9807;SDS011;4943;52.550;13.462;2023-04-01T13:58:42;287.57;;;112.90;;
9807;SDS011;4943;52.550;13.462;2023-04-01T14:01:24;291.57;;;113.20;;
9807;SDS011;4943;52.550;13.462;2023-04-01T14:04:07;292.83;;;114.33;;
9807;SDS011;4943;52.550;13.462;2023-04-01T14:06:56;294.57;;;113.53;;
9807;SDS011;4943;52.550;13.462;2023-04-01T14:09:42;290.73;;;109.03;;
9807;SDS011;4943;52.550;13.462;2023-04-01T14:12:19;288.73;;;107.33;;
9807;SDS011;4943;52.550;13.462;2023-04-01T14:15:01;287.13;;;106.03;;
9807;SDS011;4943;52.550;13.462;2023-04-01T14:17:50;296.80;;;115.70;;
9807;SDS011;4943;52.550;13.462;2023-04-01T14:20:31;289.53;;;106.23;;
9807;SDS011;4943;52.550;13.462;2023-04-01T14:23:07;289.27;;;109.23;;
9807;SDS011;4943;52.550;13.462;2023-04-01T14:29:16;286.77;;;103.07;;
9807;SDS011;4943;52.550;13.462;2023-04-01T14:31:58;288.50;;;107.13;;
9807;SDS011;4943;52.550;13.462;2023-04-01T14:34:37;289.20;;;106.80;;
9807;SDS011;4943;52.550;13.462;2023-04-01T14:37:43;287.60;;;106.43;;
9807;SDS011;4943;52.550;13.462;2023-04-01T14:40:32;283.97;;;103.00;;
9807;SDS011;4943;52.550;13.462;2023-04-01T14:43:14;285.53;;;105.17;;
9807;SDS011;4943;52.550;13.462;2023-04-01T14:49:00;283.50;;;102.77;;
9807;SDS011;4943;52.550;13.462;2023-04-01T14:51:32;282.23;;;100.90;;
9807;SDS011;4943;52.550;13.462;2023-04-01T14:54:06;284.33;;;103.03;;
9807;SDS011;4943;52.550;13.462;2023-04-01T14:56:43;284.83;;;105.80;;
9807;SDS011;4943;52.550;13.462;2023-04-01T14:59:17;286.30;;;104.43;;
9807;SDS011;4943;52.550;13.462;2023-04-01T15:01:55;283.97;;;101.93;;
9807;SDS011;4943;52.550;13.462;2023-04-01T15:04:49;287.53;;;105.40;;
9807;SDS011;4943;52.550;13.462;2023-04-01T15:13:44;282.83;;;101.57;;
9807;SDS011;4943;52.550;13.462;2023-04-01T15:16:46;282.90;;;97.60;;
9807;SDS011;4943;52.550;13.462;2023-04-01T15:19:24;284.20;;;98.43;;
9807;SDS011;4943;52.550;13.462;2023-04-01T15:22:06;283.60;;;99.90;;
9807;SDS011;4943;52.550;13.462;2023-04-01T15:25:13;280.50;;;97.97;;
9807;SDS011;4943;52.550;13.462;2023-04-01T15:27:53;282.53;;;99.20;;
9807;SDS011;4943;52.550;13.462;2023-04-01T15:30:28;280.33;;;95.53;;
9807;SDS011;4943;52.550;13.462;2023-04-01T15:33:03;280.60;;;97.57;;
9807;SDS011;4943;52.550;13.462;2023-04-01T15:35:43;280.50;;;94.33;;
9807;SDS011;4943;52.550;13.462;2023-04-01T15:38:19;281.27;;;98.37;;
9807;SDS011;4943;52.550;13.462;2023-04-01T15:40:56;281.20;;;98.67;;
9807;SDS011;4943;52.550;13.462;2023-04-01T15:43:33;284.43;;;100.27;;
9807;SDS011;4943;52.550;13.462;2023-04-01T15:46:30;280.47;;;95.90;;
9807;SDS011;4943;52.550;13.462;2023-04-01T15:49:11;280.70;;;96.70;;
9807;SDS011;4943;52.550;13.462;2023-04-01T15:52:03;284.83;;;100.03;;
9807;SDS011;4943;52.550;13.462;2023-04-01T15:57:28;280.27;;;96.33;;
9807;SDS011;4943;52.550;13.462;2023-04-01T16:00:16;279.43;;;94.13;;
9807;SDS011;4943;52.550;13.462;2023-04-01T16:02:52;279.20;;;95.80;;
9807;SDS011;4943;52.550;13.462;2023-04-01T16:05:37;282.40;;;96.23;;
9807;SDS011;4943;52.550;13.462;2023-04-01T16:08:17;279.23;;;94.57;;
9807;SDS011;4943;52.550;13.462;2023-04-01T16:11:10;279.43;;;92.17;;
9807;SDS011;4943;52.550;13.462;2023-04-01T16:13:53;280.70;;;93.13;;
9807;SDS011;4943;52.550;13.462;2023-04-01T16:16:38;277.87;;;92.70;;
9807;SDS011;4943;52.550;13.462;2023-04-01T16:19:31;277.40;;;90.20;;
9807;SDS011;4943;52.550;13.462;2023-04-01T16:22:10;278.30;;;91.67;;
9807;SDS011;4943;52.550;13.462;2023-04-01T16:24:45;277.43;;;90.03;;
9807;SDS011;4943;52.550;13.462;2023-04-01T16:27:18;279.47;;;93.43;;
9807;SDS011;4943;52.550;13.462;2023-04-01T16:29:55;276.67;;;92.63;;
9807;SDS011;4943;52.550;13.462;2023-04-01T16:32:31;277.43;;;91.47;;